Time;durP1;ratioP1;P1;durP2;ratioP2;P2;SDS_P1;SDS_P2;PMS_P1;PMS_P2;Temp;Humidity;BMP_temperature;BMP_pressure;BME280_temperature;BME280_humidity;BME280_pressure;Samples;Min_cycle;Max_cycle;Signal;HPM_P1;HPM_P2
2022/08/24 00:01:17;;;;;;;5.72;3.45;;;20.90;99.90;;;;;;5014792;28;20057;-73
2022/08/24 00:03:44;;;;;;;6.25;4.45;;;20.90;99.90;;;;;;5019325;28;20056;-73
2022/08/24 00:06:14;;;;;;;4.63;3.42;;;20.90;99.90;;;;;;5027618;28;20054;-73
2022/08/24 00:08:41;;;;;;;8.30;3.67;;;20.90;99.90;;;;;;5026738;28;20400;-72
2022/08/24 00:11:08;;;;;;;4.40;3.70;;;20.90;99.90;;;;;;5024998;28;20067;-73
2022/08/24 00:13:37;;;;;;;6.78;3.70;;;20.90;99.90;;;;;;5029144;28;20061;-74
2022/08/24 00:16:06;;;;;;;6.70;4.50;;;20.90;99.90;;;;;;5001025;28;20128;-73
2022/08/24 00:18:33;;;;;;;6.13;4.38;;;20.80;99.90;;;;;;5019187;28;20057;-74
2022/08/24 00:21:00;;;;;;;6.13;3.92;;;20.90;99.90;;;;;;5022131;28;20049;-74
2022/08/24 00:23:28;;;;;;;6.07;3.67;;;20.90;99.90;;;;;;5015700;28;20474;-74
2022/08/24 00:25:55;;;;;;;6.45;4.70;;;20.90;99.90;;;;;;5025190;28;20041;-72
2022/08/24 00:28:22;;;;;;;5.55;3.92;;;20.90;99.90;;;;;;5030147;28;20489;-67
2022/08/24 00:30:49;;;;;;;6.75;3.70;;;20.90;99.90;;;;;;5012752;28;20093;-74
2022/08/24 00:33:16;;;;;;;5.15;3.92;;;20.90;99.90;;;;;;5016274;28;20045;-70
2022/08/24 00:35:43;;;;;;;5.80;3.38;;;20.90;99.90;;;;;;5022385;28;20099;-73
2022/08/24 00:38:10;;;;;;;5.25;3.70;;;20.90;99.90;;;;;;5028213;28;20084;-73
2022/08/24 00:40:41;;;;;;;4.97;3.13;;;21.00;99.90;;;;;;5019074;28;20046;-72
2022/08/24 00:43:09;;;;;;;6.57;3.20;;;21.00;99.90;;;;;;5033810;28;20053;-73
2022/08/24 00:45:46;;;;;;;4.70;3.13;;;21.00;99.90;;;;;;5028458;28;20046;-74
2022/08/24 00:48:26;;;;;;;5.07;2.78;;;21.00;99.90;;;;;;5026295;28;20050;-74
2022/08/24 00:50:58;;;;;;;4.35;2.97;;;21.00;99.90;;;;;;5031394;28;20061;-74
2022/08/24 00:53:30;;;;;;;5.20;2.58;;;21.00;99.90;;;;;;5007684;28;20073;-74
2022/08/24 00:55:59;;;;;;;4.28;3.15;;;21.00;99.90;;;;;;5028299;28;20049;-73
2022/08/24 00:58:42;;;;;;;3.10;2.17;;;21.00;99.90;;;;;;5033178;28;20053;-74
2022/08/24 01:01:09;;;;;;;3.95;2.47;;;21.00;99.90;;;;;;4995311;28;20046;-73
2022/08/24 01:03:36;;;;;;;6.15;2.55;;;21.00;99.90;;;;;;5018781;28;20038;-73
2022/08/24 01:06:03;;;;;;;5.88;2.47;;;21.00;99.90;;;;;;5025499;28;20063;-74
2022/08/24 01:08:30;;;;;;;4.32;2.55;;;21.00;99.90;;;;;;5026855;28;20483;-74
2022/08/24 01:11:05;;;;;;;3.00;2.20;;;20.90;99.90;;;;;;5026415;28;20060;-73
2022/08/24 01:13:33;;;;;;;3.95;2.40;;;21.00;99.90;;;;;;5029592;28;20416;-73
2022/08/24 01:16:04;;;;;;;4.00;2.30;;;20.90;99.90;;;;;;5020612;28;20056;-72
2022/08/24 01:18:49;;;;;;;3.28;2.20;;;20.90;99.90;;;;;;5028847;28;20477;-74
2022/08/24 01:21:43;;;;;;;4.30;2.85;;;20.90;99.90;;;;;;5032198;28;20052;-74
2022/08/24 01:24:11;;;;;;;2.53;1.95;;;20.90;99.90;;;;;;5017261;28;20439;-73
2022/08/24 01:26:39;;;;;;;5.00;2.20;;;21.00;99.90;;;;;;5027614;28;20054;-74
2022/08/24 01:29:13;;;;;;;4.60;2.20;;;20.90;99.90;;;;;;5024900;28;20049;-72
2022/08/24 01:31:40;;;;;;;3.85;2.03;;;20.90;99.90;;;;;;5023994;28;20065;-71
2022/08/24 01:34:07;;;;;;;3.88;1.90;;;21.00;99.90;;;;;;5030232;28;20080;-72
2022/08/24 01:36:36;;;;;;;3.08;2.33;;;20.90;99.90;;;;;;5018272;28;20045;-73
2022/08/24 01:39:20;;;;;;;3.25;2.00;;;20.90;99.90;;;;;;5002272;28;20492;-73
2022/08/24 01:41:47;;;;;;;2.60;1.67;;;20.90;99.90;;;;;;4998542;28;20065;-70
2022/08/24 01:44:14;;;;;;;3.83;2.00;;;20.80;99.90;;;;;;5014904;28;20469;-73
2022/08/24 01:46:48;;;;;;;3.45;1.80;;;20.80;99.90;;;;;;5018698;28;20058;-73
2022/08/24 01:49:15;;;;;;;4.22;2.00;;;20.80;99.90;;;;;;5026411;28;20408;-74
2022/08/24 01:51:43;;;;;;;2.97;1.70;;;20.70;99.90;;;;;;5031898;28;20409;-74
2022/08/24 01:54:11;;;;;;;3.38;1.90;;;20.70;99.90;;;;;;5029091;28;20045;-68
2022/08/24 01:56:38;;;;;;;3.08;1.58;;;20.70;99.90;;;;;;5025393;28;20049;-73
2022/08/24 01:59:06;;;;;;;2.47;1.38;;;20.70;99.90;;;;;;5031923;28;20557;-74
2022/08/24 02:01:36;;;;;;;3.17;1.63;;;20.70;99.90;;;;;;5032061;28;20083;-73
2022/08/24 02:04:03;;;;;;;2.25;1.63;;;20.70;99.90;;;;;;5033019;28;20057;-72
2022/08/24 02:06:31;;;;;;;5.55;2.30;;;20.60;99.90;;;;;;5030124;28;20056;-71
2022/08/24 02:08:59;;;;;;;3.00;1.73;;;20.60;99.90;;;;;;5020811;28;21065;-73
2022/08/24 02:11:26;;;;;;;2.58;1.50;;;20.50;99.90;;;;;;5019387;28;20087;-73
2022/08/24 02:13:53;;;;;;;1.75;1.35;;;20.50;99.90;;;;;;5029830;28;20045;-73
2022/08/24 02:16:20;;;;;;;2.40;1.63;;;20.40;99.90;;;;;;5033572;28;20053;-72
2022/08/24 02:18:47;;;;;;;1.90;1.40;;;20.40;99.90;;;;;;5025671;28;20082;-73
2022/08/24 02:21:15;;;;;;;3.10;1.42;;;20.40;99.90;;;;;;5025115;28;20472;-74
2022/08/24 02:23:42;;;;;;;3.80;1.87;;;20.50;99.90;;;;;;5029335;28;20049;-72
2022/08/24 02:26:10;;;;;;;3.65;1.85;;;20.50;99.90;;;;;;5022907;28;20081;-70
2022/08/24 02:28:37;;;;;;;2.30;1.17;;;20.60;99.90;;;;;;5029554;28;20489;-73
2022/08/24 02:31:04;;;;;;;3.10;2.15;;;20.60;99.90;;;;;;5031798;28;20061;-73
2022/08/24 02:33:35;;;;;;;2.35;1.60;;;20.60;99.90;;;;;;5032114;28;20054;-70
2022/08/24 02:36:02;;;;;;;4.03;1.80;;;20.60;99.90;;;;;;5033373;28;20046;-71
2022/08/24 02:38:34;;;;;;;3.35;1.90;;;20.60;99.90;;;;;;5014866;28;20138;-73
2022/08/24 02:41:01;;;;;;;2.90;1.80;;;20.70;99.90;;;;;;5025150;28;20417;-73
2022/08/24 02:43:28;;;;;;;3.78;2.33;;;20.60;99.90;;;;;;5022886;28;20061;-74
2022/08/24 02:45:56;;;;;;;4.28;2.20;;;20.60;99.90;;;;;;5016424;28;20057;-73
2022/08/24 02:48:23;;;;;;;6.50;2.95;;;20.60;99.90;;;;;;5022083;28;20132;-74
2022/08/24 02:50:50;;;;;;;8.45;2.50;;;20.60;99.90;;;;;;5016831;28;20490;-73
2022/08/24 02:53:18;;;;;;;4.35;2.15;;;20.60;99.90;;;;;;5018068;28;20049;-72
2022/08/24 02:55:45;;;;;;;5.10;2.20;;;20.60;99.90;;;;;;5020216;28;20041;-72
2022/08/24 02:58:13;;;;;;;3.40;2.08;;;20.60;99.90;;;;;;5028995;28;20072;-71
2022/08/24 03:00:40;;;;;;;4.85;2.67;;;20.60;99.90;;;;;;5027625;28;20612;-72
2022/08/24 03:03:07;;;;;;;3.75;2.53;;;20.60;99.90;;;;;;5031063;28;20056;-70
2022/08/24 03:05:35;;;;;;;4.13;2.72;;;20.60;99.90;;;;;;5009769;28;20387;-71
2022/08/24 03:08:02;;;;;;;3.13;2.22;;;20.50;99.90;;;;;;5027713;28;20405;-75
2022/08/24 03:10:29;;;;;;;6.75;2.80;;;20.50;99.90;;;;;;5024736;28;20042;-70
2022/08/24 03:12:57;;;;;;;6.97;3.20;;;20.50;99.90;;;;;;5018857;28;20140;-72
2022/08/24 03:15:25;;;;;;;4.45;2.50;;;20.50;99.90;;;;;;5024194;28;20136;-72
2022/08/24 03:17:52;;;;;;;6.05;3.15;;;20.40;99.90;;;;;;5028588;28;20462;-72
2022/08/24 03:20:20;;;;;;;3.75;2.65;;;20.40;99.90;;;;;;5027315;28;20473;-72
2022/08/24 03:22:47;;;;;;;5.15;2.45;;;20.40;99.90;;;;;;5015694;28;20065;-72
2022/08/24 03:25:14;;;;;;;3.53;2.67;;;20.40;99.90;;;;;;5010602;28;20045;-71
2022/08/24 03:27:42;;;;;;;3.15;2.45;;;20.40;99.90;;;;;;5021654;28;20054;-68
2022/08/24 03:30:11;;;;;;;5.00;2.30;;;20.40;99.90;;;;;;5031560;28;20053;-74
2022/08/24 03:32:40;;;;;;;7.95;3.47;;;20.40;99.90;;;;;;5014496;28;20133;-73
2022/08/24 03:35:07;;;;;;;3.17;2.20;;;20.40;99.90;;;;;;5028883;28;20049;-73
2022/08/24 03:37:34;;;;;;;3.85;2.78;;;20.40;99.90;;;;;;5031185;28;20064;-74
2022/08/24 03:40:01;;;;;;;4.85;2.80;;;20.40;99.90;;;;;;5024156;28;20041;-74
2022/08/24 03:42:28;;;;;;;3.95;2.38;;;20.40;99.90;;;;;;5016033;28;20050;-74
2022/08/24 03:44:55;;;;;;;4.03;2.28;;;20.40;99.90;;;;;;5021530;28;20044;-72
2022/08/24 03:47:22;;;;;;;3.35;2.33;;;20.40;99.90;;;;;;5024466;28;20038;-71
2022/08/24 03:49:49;;;;;;;3.38;2.60;;;20.40;99.90;;;;;;5031267;28;20085;-71
2022/08/24 03:52:16;;;;;;;3.60;2.20;;;20.40;99.90;;;;;;5025086;28;20038;-73
2022/08/24 03:54:43;;;;;;;3.30;2.97;;;20.50;99.90;;;;;;5045474;28;20042;-72
2022/08/24 03:57:09;;;;;;;3.78;2.58;;;20.50;99.90;;;;;;4991895;28;20046;-73
2022/08/24 03:59:37;;;;;;;2.70;2.40;;;20.50;99.90;;;;;;5019132;28;20042;-73
2022/08/24 04:02:12;;;;;;;4.10;3.22;;;20.50;99.90;;;;;;4992223;28;20076;-71
2022/08/24 04:04:40;;;;;;;5.68;3.08;;;20.50;99.90;;;;;;5018877;28;20046;-72
2022/08/24 04:07:08;;;;;;;5.18;3.53;;;20.50;99.90;;;;;;5030338;28;20084;-72
2022/08/24 04:09:35;;;;;;;7.32;4.53;;;20.50;99.90;;;;;;5026748;28;20045;-72
2022/08/24 04:12:03;;;;;;;7.82;3.55;;;20.40;99.90;;;;;;5027506;28;20493;-73
2022/08/24 04:14:30;;;;;;;6.22;3.63;;;20.40;99.90;;;;;;5009572;28;20050;-72
2022/08/24 04:16:57;;;;;;;5.13;3.40;;;20.40;99.90;;;;;;5019840;28;20037;-72
2022/08/24 04:19:24;;;;;;;4.25;3.20;;;20.40;99.90;;;;;;5024337;28;20037;-72
2022/08/24 04:21:51;;;;;;;7.15;3.42;;;20.40;99.90;;;;;;5019580;28;20485;-70
2022/08/24 04:24:19;;;;;;;4.88;3.30;;;20.40;99.90;;;;;;5023527;28;20045;-73
2022/08/24 04:26:46;;;;;;;4.18;3.40;;;20.40;99.90;;;;;;5029975;28;20480;-72
2022/08/24 04:29:14;;;;;;;5.55;3.42;;;20.40;99.90;;;;;;5028347;28;20047;-73
2022/08/24 04:31:41;;;;;;;5.38;3.90;;;20.40;99.90;;;;;;5028683;28;20049;-72
2022/08/24 04:34:09;;;;;;;4.53;2.90;;;20.40;99.90;;;;;;5028876;28;20493;-70
2022/08/24 04:36:36;;;;;;;3.75;2.97;;;20.40;99.90;;;;;;5016613;28;20056;-72
2022/08/24 04:39:03;;;;;;;3.45;2.70;;;20.40;99.90;;;;;;5029441;28;20046;-72
2022/08/24 04:41:30;;;;;;;3.83;2.80;;;20.40;99.90;;;;;;5011835;28;20050;-72
2022/08/24 04:43:58;;;;;;;4.78;3.78;;;20.40;99.90;;;;;;4992140;28;20069;-73
2022/08/24 04:46:25;;;;;;;4.35;3.25;;;20.40;99.90;;;;;;5009211;28;20112;-73
2022/08/24 04:48:52;;;;;;;4.97;2.78;;;20.40;99.90;;;;;;5021692;28;20489;-73
2022/08/24 04:51:19;;;;;;;4.70;3.78;;;20.40;99.90;;;;;;5024451;28;20046;-72
2022/08/24 04:53:47;;;;;;;4.80;2.58;;;20.40;99.90;;;;;;5005362;28;20500;-71
2022/08/24 04:56:16;;;;;;;4.68;2.75;;;20.40;99.90;;;;;;5017092;28;20049;-73
2022/08/24 04:58:46;;;;;;;5.03;3.17;;;20.40;99.90;;;;;;5018917;28;20087;-73
2022/08/24 05:01:14;;;;;;;5.18;2.97;;;20.40;99.90;;;;;;5026914;28;20054;-73
2022/08/24 05:03:44;;;;;;;6.63;3.17;;;20.40;99.90;;;;;;5024264;28;20436;-72
2022/08/24 05:06:13;;;;;;;4.78;3.00;;;20.50;99.90;;;;;;5029897;28;20049;-71
2022/08/24 05:08:41;;;;;;;4.50;3.40;;;20.50;99.90;;;;;;5030502;28;20056;-72
2022/08/24 05:11:08;;;;;;;6.00;2.60;;;20.50;99.90;;;;;;5012733;28;20046;-73
2022/08/24 05:13:35;;;;;;;6.65;3.00;;;20.50;99.90;;;;;;5022353;28;20057;-73
2022/08/24 05:16:09;;;;;;;3.88;3.15;;;20.50;99.90;;;;;;5023217;28;20482;-74
2022/08/24 05:18:36;;;;;;;3.95;2.58;;;20.50;99.90;;;;;;5020908;28;20050;-73
2022/08/24 05:21:10;;;;;;;5.45;2.85;;;20.50;99.90;;;;;;5007229;28;20104;-73
2022/08/24 05:23:37;;;;;;;6.82;2.60;;;20.60;99.90;;;;;;5015579;28;20038;-72
2022/08/24 05:26:10;;;;;;;7.03;3.47;;;20.60;99.90;;;;;;5011196;28;20101;-72
2022/08/24 05:28:38;;;;;;;4.63;3.10;;;20.60;99.90;;;;;;5031051;28;20057;-73
2022/08/24 05:31:09;;;;;;;4.63;3.20;;;20.70;99.90;;;;;;5033693;28;20123;-73
2022/08/24 05:33:36;;;;;;;9.75;3.55;;;20.60;99.90;;;;;;5026661;28;20129;-73
2022/08/24 05:36:04;;;;;;;7.63;3.25;;;20.70;99.90;;;;;;5032061;28;20046;-73
2022/08/24 05:38:31;;;;;;;6.15;2.75;;;20.70;99.90;;;;;;5030384;28;20053;-72
2022/08/24 05:41:03;;;;;;;5.13;3.03;;;20.70;99.90;;;;;;5028245;28;20125;-75
2022/08/24 05:43:30;;;;;;;4.97;3.17;;;20.70;99.90;;;;;;5023175;28;20046;-74
2022/08/24 05:45:57;;;;;;;6.38;5.30;;;20.70;99.90;;;;;;5029589;28;20073;-72
2022/08/24 05:48:24;;;;;;;11.38;7.40;;;20.70;99.90;;;;;;5017919;28;20053;-73
2022/08/24 05:50:55;;;;;;;7.20;4.10;;;20.70;99.90;;;;;;5017324;28;20511;-67
2022/08/24 05:53:22;;;;;;;4.30;2.88;;;20.70;99.90;;;;;;4993883;28;20045;-66
2022/08/24 05:55:49;;;;;;;5.47;3.40;;;20.70;99.90;;;;;;5017413;28;20065;-68
2022/08/24 05:58:16;;;;;;;5.03;2.65;;;20.70;99.90;;;;;;5024651;28;20115;-73
2022/08/24 06:00:58;;;;;;;7.15;3.17;;;20.70;99.90;;;;;;5016700;28;20050;-73
2022/08/24 06:03:25;;;;;;;6.00;3.10;;;20.70;99.90;;;;;;5034904;28;20132;-66
2022/08/24 06:05:53;;;;;;;9.70;7.20;;;20.70;99.90;;;;;;5031719;28;20073;-65
2022/08/24 06:08:20;;;;;;;11.80;9.40;;;20.70;99.90;;;;;;5031188;28;20079;-64
2022/08/24 06:10:47;;;;;;;6.05;3.95;;;20.70;99.90;;;;;;5024344;28;20046;-64
2022/08/24 06:13:15;;;;;;;5.65;3.10;;;20.70;99.90;;;;;;5032569;28;20050;-65
2022/08/24 06:15:42;;;;;;;6.13;2.80;;;20.70;99.90;;;;;;5021137;28;20515;-64
2022/08/24 06:18:25;;;;;;;6.53;3.58;;;20.70;99.90;;;;;;5021386;28;20050;-65
2022/08/24 06:20:52;;;;;;;6.85;2.65;;;20.70;99.90;;;;;;5023783;28;20046;-65
2022/08/24 06:23:23;;;;;;;4.80;2.63;;;20.70;99.90;;;;;;5015442;28;20054;-65
2022/08/24 06:28:52;;;;;;;5.97;2.90;;;20.70;99.90;;;;;;5017221;28;20045;-65
2022/08/24 06:31:19;;;;;;;3.75;2.42;;;20.70;99.90;;;;;;4993336;28;20054;-65
2022/08/24 06:33:46;;;;;;;6.97;2.58;;;20.70;99.90;;;;;;4995079;28;20094;-65
2022/08/24 06:36:13;;;;;;;6.20;3.10;;;20.80;99.90;;;;;;5028742;28;20507;-66
2022/08/24 06:38:42;;;;;;;7.75;2.38;;;20.80;99.90;;;;;;5009855;28;20404;-64
2022/08/24 06:41:12;;;;;;;6.90;3.13;;;20.80;99.90;;;;;;5035625;28;20139;-65
2022/08/24 06:43:39;;;;;;;4.57;2.10;;;20.90;99.90;;;;;;5024693;28;20045;-65
2022/08/24 06:46:07;;;;;;;4.60;2.83;;;20.90;99.90;;;;;;5016923;28;20054;-65
2022/08/24 06:48:34;;;;;;;4.30;2.10;;;21.00;99.90;;;;;;5013129;28;20050;-65
2022/08/24 06:51:01;;;;;;;3.22;2.22;;;21.00;99.90;;;;;;5014815;28;20046;-66
2022/08/24 06:53:28;;;;;;;4.60;2.17;;;21.10;99.90;;;;;;5012905;28;20057;-65
2022/08/24 06:55:56;;;;;;;4.43;2.00;;;21.10;99.90;;;;;;5021512;28;20404;-69
2022/08/24 06:58:24;;;;;;;5.13;2.70;;;21.10;99.90;;;;;;5018427;28;20081;-64
2022/08/24 07:00:51;;;;;;;3.22;2.40;;;21.20;99.90;;;;;;5002645;28;20504;-65
2022/08/24 07:03:19;;;;;;;3.63;1.98;;;21.20;99.90;;;;;;5024290;28;20137;-65
2022/08/24 07:05:54;;;;;;;6.28;2.65;;;21.30;99.90;;;;;;5027924;28;20124;-64
2022/08/24 07:08:21;;;;;;;2.63;2.08;;;21.40;99.90;;;;;;5029407;28;20401;-67
2022/08/24 07:10:48;;;;;;;4.13;1.70;;;21.40;99.90;;;;;;5029113;28;20050;-67
2022/08/24 07:13:15;;;;;;;14.38;11.30;;;21.40;99.90;;;;;;5022369;28;20057;-65
2022/08/24 07:15:42;;;;;;;9.55;6.57;;;21.40;99.90;;;;;;5009370;28;20485;-65
2022/08/24 07:18:15;;;;;;;3.50;2.17;;;21.40;99.90;;;;;;5005009;28;20107;-65
2022/08/24 07:20:42;;;;;;;3.97;2.03;;;21.40;99.90;;;;;;5011446;28;20442;-64
2022/08/24 07:23:11;;;;;;;4.10;3.00;;;21.40;99.90;;;;;;5017133;28;20056;-64
2022/08/24 07:25:38;;;;;;;3.45;2.15;;;21.40;99.90;;;;;;5014218;28;20045;-64
2022/08/24 07:28:08;;;;;;;2.53;1.83;;;21.40;99.90;;;;;;5022686;28;20049;-64
2022/08/24 07:30:36;;;;;;;5.32;2.03;;;21.40;99.90;;;;;;5024915;28;20526;-64
2022/08/24 07:33:03;;;;;;;4.25;1.98;;;21.40;99.90;;;;;;5023899;28;20041;-64
2022/08/24 07:35:33;;;;;;;3.78;2.20;;;21.40;99.90;;;;;;5011063;28;20057;-63
2022/08/24 07:38:00;;;;;;;2.75;1.85;;;21.50;99.90;;;;;;5016471;28;20043;-64
2022/08/24 07:40:28;;;;;;;4.20;2.20;;;21.60;99.90;;;;;;5016701;28;20708;-64
2022/08/24 07:42:56;;;;;;;3.60;2.03;;;21.70;99.90;;;;;;5018817;28;20157;-64
2022/08/24 07:45:24;;;;;;;4.13;2.00;;;21.80;99.90;;;;;;5026919;28;20064;-66
2022/08/24 07:47:51;;;;;;;4.40;2.20;;;21.90;99.90;;;;;;5004311;28;20042;-66
2022/08/24 07:50:21;;;;;;;9.25;3.55;;;22.10;99.90;;;;;;5042754;28;20124;-64
2022/08/24 07:52:48;;;;;;;3.70;2.45;;;22.30;99.90;;;;;;5020513;28;20061;-67
2022/08/24 07:55:15;;;;;;;3.70;2.58;;;22.40;99.90;;;;;;5022777;28;20041;-68
2022/08/24 07:57:44;;;;;;;3.58;1.85;;;22.60;99.90;;;;;;5018768;28;20073;-68
2022/08/24 08:00:12;;;;;;;3.15;2.08;;;22.70;99.90;;;;;;5018583;28;20054;-68
2022/08/24 08:02:41;;;;;;;8.68;3.03;;;22.90;99.90;;;;;;5013001;28;20049;-66
2022/08/24 08:05:09;;;;;;;3.60;1.67;;;23.10;99.90;;;;;;5011151;28;20051;-67
2022/08/24 08:07:36;;;;;;;3.95;2.13;;;23.20;99.90;;;;;;5024757;28;20052;-67
2022/08/24 08:10:03;;;;;;;3.20;2.05;;;23.30;99.90;;;;;;5016640;28;20481;-68
2022/08/24 08:12:31;;;;;;;5.40;1.92;;;23.30;99.90;;;;;;5004800;28;20057;-67
2022/08/24 08:14:58;;;;;;;4.03;1.92;;;23.40;99.90;;;;;;5029114;28;20049;-67
2022/08/24 08:17:25;;;;;;;5.03;2.00;;;23.40;99.90;;;;;;5026223;28;20050;-70
2022/08/24 08:19:52;;;;;;;3.15;1.98;;;23.50;99.90;;;;;;5024488;28;20050;-70
2022/08/24 08:25:06;;;;;;;6.65;2.45;;;23.70;99.90;;;;;;5013383;28;20120;-69
2022/08/24 08:27:34;;;;;;;;;;;23.80;99.90;;;;;;5024780;28;20064;-69
2022/08/24 08:30:04;;;;;;;4.70;2.28;;;23.80;99.90;;;;;;5036574;28;19925;-67
2022/08/24 08:32:31;;;;;;;5.90;2.17;;;23.90;99.90;;;;;;5009017;28;20048;-69
2022/08/24 08:34:58;;;;;;;9.02;2.00;;;24.10;99.90;;;;;;5012543;28;20065;-69
2022/08/24 08:37:28;;;;;;;10.27;2.70;;;24.30;99.90;;;;;;5005830;28;20058;-68
2022/08/24 08:39:55;;;;;;;9.27;2.17;;;24.40;99.90;;;;;;5025690;28;20054;-69
2022/08/24 08:42:52;;;;;;;9.77;2.22;;;24.50;99.90;;;;;;5026115;28;20042;-65
2022/08/24 08:46:04;;;;;;;3.70;1.63;;;24.50;99.90;;;;;;5008038;28;20057;-67
2022/08/24 08:48:48;;;;;;;12.18;2.47;;;24.50;99.90;;;;;;5009681;28;20076;-67
2022/08/24 08:51:50;;;;;;;4.82;1.90;;;24.40;99.90;;;;;;5028060;28;20053;-66
2022/08/24 08:54:38;;;;;;;5.40;1.98;;;24.40;99.90;;;;;;4998002;28;20050;-66
2022/08/24 08:57:47;;;;;;;4.38;2.20;;;24.40;99.90;;;;;;5026616;28;20050;-65
2022/08/24 09:00:21;;;;;;;4.53;1.67;;;24.50;99.90;;;;;;5028696;28;20045;-65
2022/08/24 09:02:54;;;;;;;2.60;1.70;;;24.60;99.90;;;;;;5020524;28;20080;-68
2022/08/24 09:05:29;;;;;;;5.35;2.17;;;24.70;99.90;;;;;;5010698;28;20050;-66
2022/08/24 09:07:59;;;;;;;4.68;2.47;;;24.70;99.90;;;;;;5017808;28;20224;-67
2022/08/24 09:10:32;;;;;;;3.35;1.67;;;24.80;99.90;;;;;;5032878;28;20053;-67
2022/08/24 09:13:36;;;;;;;7.78;1.70;;;25.00;99.90;;;;;;5027288;28;20476;-68
2022/08/24 09:16:23;;;;;;;9.90;2.20;;;25.10;99.90;;;;;;5026859;28;20046;-67
2022/08/24 09:19:18;;;;;;;5.93;1.90;;;25.20;99.90;;;;;;5005298;28;20042;-67
2022/08/24 09:22:07;;;;;;;4.65;1.75;;;25.20;99.90;;;;;;5019383;28;20049;-68
2022/08/24 09:24:43;;;;;;;4.78;1.80;;;25.40;99.90;;;;;;5019676;28;20050;-67
2022/08/24 09:27:24;;;;;;;6.40;2.05;;;25.40;99.90;;;;;;5033213;28;20053;-67
2022/08/24 09:30:11;;;;;;;3.85;1.80;;;25.50;99.90;;;;;;5017386;28;20050;-68
2022/08/24 09:33:00;;;;;;;4.38;1.70;;;25.70;99.90;;;;;;5032152;28;20060;-69
2022/08/24 09:35:31;;;;;;;3.25;1.20;;;26.00;99.90;;;;;;5003596;28;20056;-67
2022/08/24 09:38:13;;;;;;;4.03;1.60;;;26.00;99.90;;;;;;4997936;28;20520;-67
2022/08/24 09:41:02;;;;;;;12.85;2.55;;;26.00;99.90;;;;;;5029858;28;20051;-69
2022/08/24 09:43:47;;;;;;;3.60;1.60;;;25.90;99.90;;;;;;5021050;28;20050;-67
2022/08/24 09:46:29;;;;;;;6.53;1.92;;;26.00;99.90;;;;;;5032266;28;20056;-67
2022/08/24 09:49:15;;;;;;;3.67;1.42;;;26.20;99.90;;;;;;5016279;28;20493;-66
2022/08/24 09:51:49;;;;;;;3.33;1.60;;;26.50;99.90;;;;;;5035054;28;20142;-67
2022/08/24 09:54:38;;;;;;;5.88;1.70;;;26.50;99.90;;;;;;5016464;28;20065;-69
2022/08/24 09:57:20;;;;;;;9.18;2.03;;;26.50;99.90;;;;;;5033815;28;20481;-67
2022/08/24 10:00:13;;;;;;;5.78;1.58;;;26.50;99.90;;;;;;5024131;28;20054;-68
2022/08/24 10:02:52;;;;;;;7.45;1.75;;;26.40;99.90;;;;;;4992026;28;20041;-68
2022/08/24 10:05:28;;;;;;;2.72;1.45;;;26.50;99.90;;;;;;5020204;28;20057;-69
2022/08/24 10:08:27;;;;;;;11.77;1.88;;;26.40;99.90;;;;;;5015879;28;20096;-68
2022/08/24 10:11:12;;;;;;;4.95;1.70;;;26.40;99.90;;;;;;5016311;28;20067;-72
2022/08/24 10:14:08;;;;;;;4.55;1.58;;;26.40;99.90;;;;;;5025817;28;20057;-70
2022/08/24 10:17:19;;;;;;;11.27;2.35;;;26.30;99.90;;;;;;5033552;28;20060;-71
2022/08/24 10:19:56;;;;;;;4.05;1.75;;;26.10;99.90;;;;;;5065530;28;20394;-70
2022/08/24 10:22:35;;;;;;;8.52;1.40;;;26.10;99.90;;;;;;5010183;28;20054;-71
2022/08/24 10:25:14;;;;;;;;;;;26.10;99.90;;;;;;4995081;28;20129;-69
2022/08/24 10:28:01;;;;;;;;;;;26.10;99.90;;;;;;5029981;28;22044;-67
2022/08/24 10:31:05;;;;;;;2.15;1.20;;;26.20;99.90;;;;;;5018905;28;19960;-73
2022/08/24 10:33:49;;;;;;;5.55;1.63;;;26.50;99.90;;;;;;5032391;28;20076;-68
2022/08/24 10:36:19;;;;;;;4.32;1.13;;;26.50;99.90;;;;;;5026654;28;20458;-69
2022/08/24 10:41:59;;;;;;;6.10;1.50;;;26.80;99.90;;;;;;5025406;28;20052;-73
2022/08/24 10:44:49;;;;;;;2.38;1.10;;;27.00;99.90;;;;;;5030781;28;20053;-74
2022/08/24 10:47:21;;;;;;;3.97;1.30;;;27.10;99.90;;;;;;5035203;28;20053;-75
2022/08/24 10:50:19;;;;;;;2.78;1.40;;;27.10;99.90;;;;;;5045560;28;20053;-70
2022/08/24 10:53:15;;;;;;;24.13;21.73;;;27.20;99.90;;;;;;5014469;28;20052;-65
2022/08/24 10:55:42;;;;;;;5.38;3.67;;;27.10;99.90;;;;;;5009194;28;20132;-70
2022/08/24 10:58:23;;;;;;;4.93;2.58;;;27.10;99.90;;;;;;5013512;28;20042;-71
2022/08/24 11:00:50;;;;;;;1.77;1.30;;;27.00;99.90;;;;;;5006844;28;20600;-71
2022/08/24 11:03:21;;;;;;;2.97;1.55;;;27.00;99.90;;;;;;5007345;28;20058;-68
2022/08/24 11:05:54;;;;;;;3.95;1.83;;;26.90;99.90;;;;;;5011745;28;20541;-68
2022/08/24 11:08:29;;;;;;;1.83;1.27;;;26.90;99.90;;;;;;5012520;28;20085;-71
2022/08/24 11:11:12;;;;;;;2.65;1.90;;;27.10;99.90;;;;;;5012675;28;20382;-69
2022/08/24 11:13:59;;;;;;;4.35;1.65;;;27.20;99.90;;;;;;5028114;28;20054;-68
2022/08/24 11:16:29;;;;;;;4.18;2.22;;;27.30;99.90;;;;;;5027140;28;20050;-67
2022/08/24 11:18:58;;;;;;;2.28;1.80;;;27.50;99.90;;;;;;5012151;28;20512;-68
2022/08/24 11:21:56;;;;;;;3.10;1.80;;;27.60;99.90;;;;;;5012820;28;20132;-67
2022/08/24 11:24:25;;;;;;;2.53;1.70;;;27.70;99.90;;;;;;5012975;28;20485;-69
2022/08/24 11:27:04;;;;;;;2.40;1.80;;;27.70;99.90;;;;;;5028773;28;20383;-68
2022/08/24 11:29:53;;;;;;;3.72;2.05;;;27.70;99.90;;;;;;5011861;28;20444;-67
2022/08/24 11:32:37;;;;;;;2.83;1.80;;;27.70;99.90;;;;;;5028672;28;20049;-68
2022/08/24 11:35:17;;;;;;;3.28;1.58;;;27.70;99.90;;;;;;5044800;28;20056;-67
2022/08/24 11:37:45;;;;;;;2.17;1.50;;;27.80;99.90;;;;;;5030292;28;20046;-67
2022/08/24 11:40:12;;;;;;;1.83;1.27;;;27.80;99.90;;;;;;5013148;28;20060;-69
2022/08/24 11:42:42;;;;;;;2.20;1.30;;;27.80;99.90;;;;;;5022913;28;20056;-77
2022/08/24 11:45:23;;;;;;;2.85;1.33;;;27.80;99.90;;;;;;5023339;28;20107;-70
2022/08/24 11:48:11;;;;;;;2.50;1.05;;;27.90;99.90;;;;;;5009249;28;20053;-69
2022/08/24 11:50:39;;;;;;;10.05;2.85;;;27.80;99.90;;;;;;5010954;28;20216;-67
2022/08/24 11:53:30;;;;;;;3.38;1.50;;;27.70;99.90;;;;;;5010717;28;20140;-67
2022/08/24 11:56:24;;;;;;;2.85;1.50;;;27.60;99.90;;;;;;5011555;28;20552;-67
2022/08/24 11:59:23;;;;;;;8.90;6.78;;;27.60;99.90;;;;;;5024772;28;20100;-67
2022/08/24 12:01:55;;;;;;;4.53;1.70;;;27.60;99.90;;;;;;5021549;28;20049;-67
2022/08/24 12:04:52;;;;;;;3.60;1.85;;;27.50;99.90;;;;;;5016738;28;20054;-69
2022/08/24 12:07:23;;;;;;;9.10;2.95;;;27.60;99.90;;;;;;5016322;28;20058;-69
2022/08/24 12:09:56;;;;;;;2.42;1.85;;;27.70;99.90;;;;;;5007436;28;20046;-67
2022/08/24 12:12:29;;;;;;;3.10;1.73;;;27.90;99.90;;;;;;5012918;28;20063;-65
2022/08/24 12:15:03;;;;;;;2.83;1.52;;;28.10;99.90;;;;;;5016377;28;20042;-69
2022/08/24 12:17:45;;;;;;;1.77;1.17;;;28.20;99.90;;;;;;5011009;28;20096;-68
2022/08/24 12:20:27;;;;;;;3.42;1.77;;;28.30;99.90;;;;;;4998658;28;20136;-68
2022/08/24 12:22:58;;;;;;;1.77;1.38;;;28.20;99.90;;;;;;5014161;28;20045;-69
2022/08/24 12:28:11;;;;;;;5.28;1.77;;;28.10;99.90;;;;;;5019470;28;20043;-71
2022/08/24 12:30:38;;;;;;;2.20;1.50;;;28.20;99.90;;;;;;5023686;28;20429;-70
2022/08/24 12:33:06;;;;;;;2.72;1.50;;;28.40;99.90;;;;;;5008383;28;20052;-69
2022/08/24 12:35:35;;;;;;;3.30;2.38;;;28.50;99.90;;;;;;5018114;28;20057;-71
2022/08/24 12:38:14;;;;;;;;;;;28.40;99.90;;;;;;5013465;28;20053;-68
2022/08/24 12:41:02;;;;;;;2.33;1.50;;;28.40;99.90;;;;;;5028569;28;20395;-73
2022/08/24 12:43:48;;;;;;;2.63;1.50;;;28.50;99.90;;;;;;5023898;28;20053;-68
2022/08/24 12:46:16;;;;;;;10.57;2.60;;;28.40;99.90;;;;;;5014523;28;20056;-66
2022/08/24 12:49:12;;;;;;;5.00;1.60;;;28.30;99.90;;;;;;5013453;28;20466;-69
2022/08/24 12:51:45;;;;;;;2.60;1.70;;;28.20;99.90;;;;;;5010940;28;20058;-68
2022/08/24 12:54:30;;;;;;;2.78;1.60;;;28.30;99.90;;;;;;5011692;28;20069;-69
2022/08/24 12:57:27;;;;;;;4.95;1.67;;;28.50;99.90;;;;;;5021809;28;20050;-71
2022/08/24 12:59:56;;;;;;;2.20;1.35;;;28.70;99.90;;;;;;5005833;28;20060;-71
2022/08/24 13:02:24;;;;;;;3.67;1.95;;;28.70;99.90;;;;;;5014493;28;20382;-73
2022/08/24 13:04:52;;;;;;;3.40;1.50;;;28.70;99.90;;;;;;5028843;28;20046;-69
2022/08/24 13:07:22;;;;;;;3.63;1.35;;;28.80;99.90;;;;;;5029556;28;20050;-69
2022/08/24 13:09:52;;;;;;;1.92;1.42;;;28.90;99.90;;;;;;5024794;28;20501;-69
2022/08/24 13:12:37;;;;;;;2.45;1.50;;;29.00;99.90;;;;;;5031708;28;20151;-72
2022/08/24 13:15:23;;;;;;;4.40;1.83;;;29.10;99.90;;;;;;5029725;28;20046;-71
2022/08/24 13:18:10;;;;;;;2.90;1.50;;;29.10;99.90;;;;;;5041809;28;20057;-73
2022/08/24 13:20:43;;;;;;;2.47;1.60;;;28.90;99.90;;;;;;5049872;28;20137;-71
2022/08/24 13:23:10;;;;;;;2.38;1.58;;;28.90;99.90;;;;;;5018628;28;20097;-71
2022/08/24 13:25:46;;;;;;;2.00;1.52;;;28.90;99.90;;;;;;5011924;28;20096;-72
2022/08/24 13:28:22;;;;;;;3.63;1.50;;;28.90;99.90;;;;;;5014487;28;20046;-71